createdAt,value
2018-11-06T00:01:56.412Z,19.52
2018-11-06T00:04:29.218Z,18.17
2018-11-06T00:07:01.459Z,19.00
2018-11-06T00:09:29.029Z,18.32
2018-11-06T00:11:56.364Z,16.93
2018-11-06T00:14:23.699Z,17.80
2018-11-06T00:16:51.123Z,16.60
2018-11-06T00:19:18.735Z,18.05
2018-11-06T00:21:46.141Z,15.48
2018-11-06T00:24:13.676Z,16.67
2018-11-06T00:29:07.891Z,15.28
2018-11-06T00:31:35.250Z,15.93
2018-11-06T00:34:02.681Z,16.35
2018-11-06T00:36:30.691Z,15.63
2018-11-06T00:38:58.145Z,17.07
2018-11-06T00:41:25.918Z,18.80
2018-11-06T00:43:53.979Z,20.00
2018-11-06T00:46:22.030Z,16.65
2018-11-06T00:48:49.649Z,17.55
2018-11-06T00:51:17.773Z,16.82
2018-11-06T00:53:46.115Z,18.62
2018-11-06T00:56:17.854Z,16.05
2018-11-06T00:58:45.703Z,16.25
2018-11-06T01:01:13.305Z,17.32
2018-11-06T01:04:17.230Z,16.77
2018-11-06T01:06:44.624Z,15.53
2018-11-06T01:09:13.466Z,18.40
2018-11-06T01:11:42.623Z,16.30
2018-11-06T01:14:10.030Z,15.40
2018-11-06T01:16:37.482Z,15.60
2018-11-06T01:19:05.412Z,17.10
2018-11-06T01:21:32.918Z,14.78
2018-11-06T01:24:00.301Z,15.70
2018-11-06T01:26:28.390Z,17.67
2018-11-06T01:28:55.850Z,17.65
2018-11-06T01:31:23.594Z,15.28
2018-11-06T01:33:50.990Z,16.80
2018-11-06T01:36:18.506Z,15.80
2018-11-06T01:38:45.991Z,16.23
2018-11-06T01:41:13.374Z,16.37
2018-11-06T01:43:45.369Z,14.47
2018-11-06T01:46:12.744Z,15.38
2018-11-06T01:48:40.222Z,15.18
2018-11-06T01:51:07.782Z,15.53
2018-11-06T01:53:35.089Z,16.37
2018-11-06T01:56:02.477Z,14.75
2018-11-06T01:58:29.808Z,15.00
2018-11-06T02:00:57.195Z,15.32
2018-11-06T02:03:25.564Z,15.40
2018-11-06T02:05:53.063Z,15.25
2018-11-06T02:08:20.531Z,14.60
2018-11-06T02:10:47.851Z,14.55
2018-11-06T02:13:16.412Z,13.40
2018-11-06T02:15:43.854Z,13.55
2018-11-06T02:18:11.520Z,14.33
2018-11-06T02:20:39.071Z,16.50
2018-11-06T02:23:06.430Z,15.40
2018-11-06T02:25:33.934Z,15.10
2018-11-06T02:28:01.252Z,14.65
2018-11-06T02:30:28.870Z,15.38
2018-11-06T02:32:56.218Z,14.13
2018-11-06T02:35:23.724Z,13.88
2018-11-06T02:37:51.189Z,13.55
2018-11-06T02:40:18.767Z,13.40
2018-11-06T02:42:46.275Z,15.32
2018-11-06T02:45:15.081Z,13.03
2018-11-06T02:47:43.198Z,14.38
2018-11-06T02:50:12.228Z,14.68
2018-11-06T02:52:39.656Z,14.30
2018-11-06T02:55:07.275Z,15.15
2018-11-06T02:57:34.779Z,14.33
2018-11-06T03:00:02.343Z,15.43
2018-11-06T03:02:30.036Z,14.55
2018-11-06T03:04:57.504Z,13.72
2018-11-06T03:07:24.885Z,13.75
2018-11-06T03:09:52.226Z,14.45
2018-11-06T03:12:20.327Z,15.30
2018-11-06T03:14:47.748Z,15.38
2018-11-06T03:17:15.396Z,13.48
2018-11-06T03:19:43.827Z,13.62
2018-11-06T03:22:11.638Z,14.45
2018-11-06T03:24:39.714Z,13.95
2018-11-06T03:27:07.275Z,13.05
2018-11-06T03:29:34.598Z,13.05
2018-11-06T03:32:02.049Z,14.80
2018-11-06T03:34:29.576Z,13.40
2018-11-06T03:36:57.070Z,14.65
2018-11-06T03:39:24.562Z,14.05
2018-11-06T03:41:52.504Z,13.72
2018-11-06T03:44:24.174Z,15.98
2018-11-06T03:46:51.502Z,12.68
2018-11-06T03:49:19.000Z,13.03
2018-11-06T03:51:46.669Z,13.65
2018-11-06T03:54:14.014Z,11.93
2018-11-06T03:56:41.838Z,14.63
2018-11-06T03:59:09.371Z,12.75
2018-11-06T04:01:36.722Z,12.50
2018-11-06T04:04:04.172Z,12.25
2018-11-06T04:06:31.591Z,14.43
2018-11-06T04:08:58.910Z,12.53
2018-11-06T04:11:26.314Z,13.53
2018-11-06T04:13:54.447Z,12.35
2018-11-06T04:16:23.526Z,12.37
2018-11-06T04:18:51.070Z,14.63
2018-11-06T04:21:22.698Z,13.90
2018-11-06T04:23:50.175Z,13.55
2018-11-06T04:26:17.694Z,12.03
2018-11-06T04:28:45.711Z,10.93
2018-11-06T04:31:13.158Z,12.10
2018-11-06T04:33:41.179Z,12.47
2018-11-06T04:36:09.196Z,13.55
2018-11-06T04:38:36.972Z,13.65
2018-11-06T04:41:04.306Z,13.20
2018-11-06T04:43:31.642Z,12.95
2018-11-06T04:45:59.641Z,13.45
2018-11-06T04:48:27.663Z,12.30
2018-11-06T04:50:55.259Z,13.28
2018-11-06T04:53:23.639Z,13.80
2018-11-06T04:55:51.027Z,13.48
2018-11-06T04:58:18.432Z,13.15
2018-11-06T05:00:46.007Z,14.33
2018-11-06T05:03:13.419Z,15.72
2018-11-06T05:05:45.091Z,13.90
2018-11-06T05:08:12.638Z,14.65
2018-11-06T05:10:40.316Z,15.10
2018-11-06T05:13:07.736Z,16.80
2018-11-06T05:15:35.192Z,16.02
2018-11-06T05:18:02.620Z,15.43
2018-11-06T05:20:30.042Z,15.70
2018-11-06T05:22:57.385Z,15.43
2018-11-06T05:25:24.892Z,17.30
2018-11-06T05:27:52.189Z,15.53
2018-11-06T05:30:19.576Z,13.68
2018-11-06T05:32:46.981Z,14.85
2018-11-06T05:35:14.313Z,13.20
2018-11-06T05:37:42.018Z,14.58
2018-11-06T05:42:36.672Z,15.00
2018-11-06T05:45:04.634Z,16.48
2018-11-06T05:47:31.994Z,17.60
2018-11-06T05:49:59.446Z,18.40
2018-11-06T05:52:26.910Z,17.62
2018-11-06T05:54:54.258Z,19.42
2018-11-06T05:57:21.654Z,17.62
2018-11-06T05:59:48.991Z,17.27
2018-11-06T06:02:16.510Z,19.02
2018-11-06T06:04:44.663Z,17.65
2018-11-06T06:07:12.942Z,20.12
2018-11-06T06:09:40.449Z,18.77
2018-11-06T06:12:07.774Z,16.40
2018-11-06T06:14:36.135Z,16.15
2018-11-06T06:17:03.531Z,16.05
2018-11-06T06:19:30.879Z,16.25
2018-11-06T06:21:58.422Z,17.27
2018-11-06T06:24:26.115Z,15.88
2018-11-06T06:26:53.442Z,15.38
2018-11-06T06:29:20.809Z,14.23
2018-11-06T06:31:48.867Z,16.80
2018-11-06T06:34:16.183Z,17.02
2018-11-06T06:36:43.852Z,15.85
2018-11-06T06:39:11.381Z,16.50
2018-11-06T06:41:39.091Z,16.37
2018-11-06T06:44:07.103Z,17.15
2018-11-06T06:46:35.105Z,15.32
2018-11-06T06:49:02.714Z,18.30
2018-11-06T06:51:30.029Z,15.58
2018-11-06T06:53:57.470Z,17.23
2018-11-06T06:56:24.782Z,16.87
2018-11-06T06:58:52.250Z,15.83
2018-11-06T07:01:19.583Z,14.33
2018-11-06T07:03:46.896Z,14.93
2018-11-06T07:06:14.191Z,15.93
2018-11-06T07:08:41.564Z,14.80
2018-11-06T07:11:08.969Z,16.02
2018-11-06T07:13:37.002Z,15.20
2018-11-06T07:16:04.456Z,14.93
2018-11-06T07:18:31.773Z,13.88
2018-11-06T07:20:59.050Z,15.25
2018-11-06T07:23:26.362Z,13.90
2018-11-06T07:25:53.736Z,14.93
2018-11-06T07:28:21.119Z,13.95
2018-11-06T07:30:48.536Z,14.73
2018-11-06T07:33:15.850Z,15.80
2018-11-06T07:35:43.254Z,17.27
2018-11-06T07:38:10.446Z,17.32
2018-11-06T07:40:38.865Z,16.80
2018-11-06T07:43:06.091Z,18.90
2018-11-06T07:45:33.384Z,17.15
2018-11-06T07:48:00.701Z,17.42
2018-11-06T07:50:28.191Z,17.50
2018-11-06T07:52:55.389Z,17.67
2018-11-06T07:55:22.737Z,16.50
2018-11-06T07:57:50.059Z,18.25
2018-11-06T08:00:20.563Z,17.27
2018-11-06T08:02:48.490Z,16.35
2018-11-06T08:05:16.085Z,17.00
2018-11-06T08:07:44.206Z,17.80
2018-11-06T08:10:11.818Z,16.52
2018-11-06T08:12:41.358Z,16.37
2018-11-06T08:15:09.680Z,16.10
2018-11-06T08:17:37.104Z,15.32
2018-11-06T08:20:04.582Z,15.45
2018-11-06T08:22:31.904Z,15.58
2018-11-06T08:24:59.214Z,16.05
2018-11-06T08:27:26.500Z,15.03
2018-11-06T08:29:54.289Z,16.73
2018-11-06T08:32:22.061Z,15.38
2018-11-06T08:34:49.118Z,15.10
2018-11-06T08:37:16.438Z,14.98
2018-11-06T08:39:43.763Z,14.90
2018-11-06T08:42:11.208Z,14.45
2018-11-06T08:44:38.499Z,14.40
2018-11-06T08:47:05.843Z,14.03
2018-11-06T08:49:33.147Z,14.25
2018-11-06T08:52:00.465Z,12.65
2018-11-06T08:54:27.820Z,12.98
2018-11-06T08:56:55.904Z,15.48
2018-11-06T08:59:23.300Z,13.55
2018-11-06T09:01:50.568Z,13.05
2018-11-06T09:04:17.868Z,13.68
2018-11-06T09:06:45.163Z,12.90
2018-11-06T09:09:12.675Z,13.20
2018-11-06T09:11:40.010Z,13.15
2018-11-06T09:14:07.950Z,14.30
2018-11-06T09:16:35.387Z,13.78
2018-11-06T09:19:02.690Z,13.13
2018-11-06T09:21:30.342Z,14.87
2018-11-06T09:23:57.919Z,13.60
2018-11-06T09:26:25.213Z,13.25
2018-11-06T09:28:52.578Z,13.35
2018-11-06T09:31:20.050Z,12.40
2018-11-06T09:33:47.627Z,12.40
2018-11-06T09:36:14.958Z,13.08
2018-11-06T09:38:42.354Z,10.88
2018-11-06T09:41:09.663Z,13.20
2018-11-06T09:43:37.001Z,12.05
2018-11-06T09:46:04.354Z,11.68
2018-11-06T09:48:31.682Z,13.05
2018-11-06T09:50:59.054Z,12.70
2018-11-06T09:53:26.367Z,12.30
2018-11-06T09:55:53.667Z,13.85
2018-11-06T09:58:20.972Z,13.72
2018-11-06T10:00:48.280Z,13.58
2018-11-06T10:03:15.709Z,13.75
2018-11-06T10:05:43.758Z,13.70
2018-11-06T10:08:11.094Z,13.20
2018-11-06T10:10:38.391Z,14.00
2018-11-06T10:13:05.719Z,13.70
2018-11-06T10:15:33.022Z,13.10
2018-11-06T10:18:00.310Z,12.20
2018-11-06T10:20:27.629Z,12.00
2018-11-06T10:22:59.446Z,14.43
2018-11-06T10:25:26.812Z,15.40
2018-11-06T10:27:54.157Z,13.88
2018-11-06T10:30:21.563Z,13.55
2018-11-06T10:32:48.866Z,13.53
2018-11-06T10:35:16.430Z,13.05
2018-11-06T10:37:44.213Z,14.87
2018-11-06T10:40:13.668Z,12.85
2018-11-06T10:42:41.177Z,12.60
2018-11-06T10:45:09.736Z,13.40
2018-11-06T10:47:37.539Z,12.30
2018-11-06T10:50:06.226Z,11.43
2018-11-06T10:52:37.635Z,10.93
2018-11-06T10:55:05.914Z,11.33
2018-11-06T10:57:33.413Z,12.70
2018-11-06T11:00:00.803Z,10.80
2018-11-06T11:02:33.531Z,12.20
2018-11-06T11:05:01.099Z,12.85
2018-11-06T11:07:28.444Z,12.33
2018-11-06T11:09:55.816Z,12.55
2018-11-06T11:12:23.225Z,11.40
2018-11-06T11:14:50.549Z,12.30
2018-11-06T11:17:17.942Z,11.03
2018-11-06T11:19:45.951Z,11.97
2018-11-06T11:22:13.261Z,10.93
2018-11-06T11:24:40.619Z,12.68
2018-11-06T11:27:08.829Z,11.97
2018-11-06T11:29:36.903Z,11.40
2018-11-06T11:32:04.239Z,14.23
2018-11-06T11:34:31.584Z,12.00
2018-11-06T11:36:58.970Z,13.65
2018-11-06T11:39:26.336Z,14.05
2018-11-06T11:41:53.738Z,11.65
2018-11-06T11:44:21.033Z,12.13
2018-11-06T11:46:48.350Z,10.90
2018-11-06T11:49:15.703Z,11.05
2018-11-06T11:51:43.054Z,10.10
2018-11-06T11:54:10.362Z,11.18
2018-11-06T11:56:37.674Z,10.48
2018-11-06T11:59:05.122Z,10.13
2018-11-06T12:01:32.439Z,9.70
2018-11-06T12:04:04.870Z,9.65
2018-11-06T12:06:32.145Z,9.75
2018-11-06T12:08:59.499Z,11.35
2018-11-06T12:11:26.861Z,10.90
2018-11-06T12:13:58.902Z,13.55
2018-11-06T12:16:26.435Z,11.33
2018-11-06T12:18:53.833Z,10.35
2018-11-06T12:21:21.199Z,10.65
2018-11-06T12:23:48.656Z,10.78
2018-11-06T12:26:15.988Z,10.80
2018-11-06T12:28:43.359Z,9.70
2018-11-06T12:31:10.682Z,10.35
2018-11-06T12:33:37.991Z,11.15
2018-11-06T12:36:05.398Z,10.48
2018-11-06T12:38:32.732Z,10.58
2018-11-06T12:41:00.038Z,9.13
2018-11-06T12:43:27.425Z,9.75
2018-11-06T12:45:54.767Z,8.53
2018-11-06T12:48:22.129Z,9.30
2018-11-06T12:50:49.547Z,9.28
2018-11-06T12:53:17.151Z,9.05
2018-11-06T12:55:45.178Z,8.68
2018-11-06T12:58:12.578Z,8.10
2018-11-06T13:00:39.881Z,7.67
2018-11-06T13:03:07.284Z,7.35
2018-11-06T13:05:35.322Z,7.55
2018-11-06T13:08:03.146Z,7.15
2018-11-06T13:10:30.479Z,6.90
2018-11-06T13:12:57.787Z,6.58
2018-11-06T13:15:25.146Z,6.83
2018-11-06T13:17:53.674Z,6.85
2018-11-06T13:20:20.989Z,7.00
2018-11-06T13:22:48.389Z,6.10
2018-11-06T13:25:15.898Z,6.72
2018-11-06T13:27:43.624Z,6.45
2018-11-06T13:30:13.217Z,6.85
2018-11-06T13:32:41.331Z,5.75
2018-11-06T13:35:09.554Z,7.12
2018-11-06T13:37:37.009Z,8.43
2018-11-06T13:40:05.258Z,7.70
2018-11-06T13:42:33.072Z,6.80
2018-11-06T13:45:00.809Z,6.47
2018-11-06T13:47:27.968Z,6.83
2018-11-06T13:49:55.266Z,6.87
2018-11-06T13:52:22.784Z,6.85
2018-11-06T13:54:50.109Z,6.60
2018-11-06T13:57:17.506Z,6.50
2018-11-06T13:59:44.906Z,6.55
2018-11-06T14:02:12.315Z,6.95
2018-11-06T14:04:40.526Z,7.28
2018-11-06T14:07:07.827Z,7.50
2018-11-06T14:09:36.039Z,6.62
2018-11-06T14:12:03.359Z,6.45
2018-11-06T14:14:30.658Z,6.95
2018-11-06T14:16:58.660Z,7.08
2018-11-06T14:19:26.075Z,7.00
2018-11-06T14:21:53.479Z,6.17
2018-11-06T14:24:20.792Z,5.85
2018-11-06T14:26:48.201Z,6.70
2018-11-06T14:29:15.529Z,6.17
2018-11-06T14:31:43.015Z,7.03
2018-11-06T14:34:10.285Z,7.15
2018-11-06T14:36:37.694Z,7.30
2018-11-06T14:39:06.346Z,6.95
2018-11-06T14:41:33.645Z,6.00
2018-11-06T14:44:01.022Z,7.03
2018-11-06T14:46:28.485Z,7.85
2018-11-06T14:48:56.160Z,7.78
2018-11-06T14:51:23.650Z,7.62
2018-11-06T14:53:51.160Z,7.35
2018-11-06T14:56:18.522Z,7.30
2018-11-06T14:58:46.016Z,7.30
2018-11-06T15:01:13.289Z,8.08
2018-11-06T15:03:40.606Z,8.38
2018-11-06T15:06:07.987Z,7.72
2018-11-06T15:08:35.374Z,7.60
2018-11-06T15:11:02.778Z,8.13
2018-11-06T15:13:30.150Z,10.72
2018-11-06T15:15:57.426Z,9.05
2018-11-06T15:18:24.796Z,9.85
2018-11-06T15:20:52.167Z,10.38
2018-11-06T15:23:19.462Z,9.00
2018-11-06T15:25:46.744Z,8.93
2018-11-06T15:28:14.883Z,8.90
2018-11-06T15:30:42.246Z,11.15
2018-11-06T15:33:09.585Z,10.45
2018-11-06T15:35:36.902Z,11.55
2018-11-06T15:38:04.505Z,9.33
2018-11-06T15:40:31.782Z,8.28
2018-11-06T15:42:59.087Z,10.40
2018-11-06T15:45:26.894Z,10.55
2018-11-06T15:47:54.250Z,9.38
2018-11-06T15:50:21.842Z,9.53
2018-11-06T15:52:50.046Z,10.38
2018-11-06T15:55:17.427Z,9.78
2018-11-06T15:57:44.963Z,9.50
2018-11-06T16:00:14.675Z,8.10
2018-11-06T16:02:42.614Z,9.75
2018-11-06T16:05:10.057Z,9.15
2018-11-06T16:07:37.653Z,9.25
2018-11-06T16:10:06.516Z,8.53
2018-11-06T16:12:33.938Z,10.30
2018-11-06T16:15:01.337Z,11.35
2018-11-06T16:17:28.721Z,10.13
2018-11-06T16:19:56.034Z,9.90
2018-11-06T16:22:23.527Z,10.78
2018-11-06T16:24:50.930Z,10.78
2018-11-06T16:27:18.309Z,9.53
2018-11-06T16:29:45.731Z,10.35
2018-11-06T16:32:13.035Z,10.60
2018-11-06T16:34:40.356Z,10.40
2018-11-06T16:37:07.809Z,11.55
2018-11-06T16:39:35.243Z,10.82
2018-11-06T16:42:02.585Z,10.28
2018-11-06T16:44:29.995Z,11.20
2018-11-06T16:46:57.383Z,11.83
2018-11-06T16:49:24.730Z,9.90
2018-11-06T16:51:52.094Z,10.43
2018-11-06T16:54:19.439Z,12.00
2018-11-06T16:56:50.898Z,12.35
2018-11-06T16:59:18.277Z,15.78
2018-11-06T17:01:45.650Z,13.93
2018-11-06T17:04:13.914Z,12.50
2018-11-06T17:06:47.204Z,16.25
2018-11-06T17:09:14.650Z,13.65
2018-11-06T17:11:41.972Z,13.55
2018-11-06T17:14:09.329Z,13.78
2018-11-06T17:16:37.030Z,12.20
2018-11-06T17:19:05.048Z,12.95
2018-11-06T17:21:32.451Z,12.68
2018-11-06T17:23:59.897Z,12.55
2018-11-06T17:26:27.926Z,12.63
2018-11-06T17:28:55.273Z,11.95
2018-11-06T17:31:22.801Z,12.88
2018-11-06T17:33:50.200Z,12.18
2018-11-06T17:36:18.415Z,11.90
2018-11-06T17:38:45.850Z,12.53
2018-11-06T17:41:13.430Z,12.03
2018-11-06T17:43:40.944Z,13.03
2018-11-06T17:46:08.596Z,11.50
2018-11-06T17:48:36.267Z,12.95
2018-11-06T17:51:03.680Z,13.80
2018-11-06T17:53:31.120Z,12.75
2018-11-06T17:58:25.445Z,12.18
2018-11-06T18:00:53.007Z,14.70
2018-11-06T18:03:20.344Z,15.38
2018-11-06T18:05:47.795Z,14.10
2018-11-06T18:08:16.768Z,13.50
2018-11-06T18:10:44.354Z,13.50
2018-11-06T18:13:11.726Z,14.03
2018-11-06T18:15:39.190Z,12.28
2018-11-06T18:18:06.686Z,13.85
2018-11-06T18:20:34.014Z,12.60
2018-11-06T18:23:02.070Z,13.62
2018-11-06T18:25:29.779Z,11.53
2018-11-06T18:27:57.148Z,12.43
2018-11-06T18:30:24.663Z,12.20
2018-11-06T18:33:00.409Z,12.15
2018-11-06T18:35:28.256Z,12.82
2018-11-06T18:37:55.629Z,11.18
2018-11-06T18:40:23.026Z,12.18
2018-11-06T18:42:51.085Z,12.88
2018-11-06T18:45:19.233Z,12.07
2018-11-06T18:47:47.802Z,13.48
2018-11-06T18:50:16.433Z,12.78
2018-11-06T18:52:45.361Z,14.18
2018-11-06T18:55:12.768Z,13.50
2018-11-06T18:57:40.179Z,12.58
2018-11-06T19:13:11.458Z,13.10
2018-11-06T19:15:38.863Z,11.57
2018-11-06T19:18:06.239Z,12.10
2018-11-06T19:20:33.698Z,13.53
2018-11-06T19:23:01.208Z,13.72
2018-11-06T19:25:28.681Z,12.53
2018-11-06T19:27:56.068Z,12.03
2018-11-06T19:30:23.547Z,13.62
2018-11-06T19:32:50.925Z,13.03
2018-11-06T19:35:18.379Z,12.37
2018-11-06T19:37:45.808Z,13.28
2018-11-06T19:40:15.404Z,13.08
2018-11-06T19:42:43.691Z,11.33
2018-11-06T19:45:11.684Z,12.50
2018-11-06T19:47:39.165Z,11.45
2018-11-06T19:50:08.348Z,12.80
2018-11-06T19:52:35.728Z,12.95
2018-11-06T19:55:03.167Z,14.90
2018-11-06T19:57:30.842Z,14.23
2018-11-06T19:59:58.431Z,13.95
2018-11-06T20:02:25.815Z,13.75
2018-11-06T20:04:53.234Z,14.78
2018-11-06T20:07:20.698Z,15.88
2018-11-06T20:09:48.132Z,16.23
2018-11-06T20:12:15.551Z,14.80
2018-11-06T20:14:42.977Z,14.23
2018-11-06T20:17:10.497Z,13.55
2018-11-06T20:19:37.901Z,13.60
2018-11-06T20:22:05.316Z,14.00
2018-11-06T20:24:32.668Z,12.65
2018-11-06T20:27:00.726Z,12.10
2018-11-06T20:29:28.183Z,13.45
2018-11-06T20:31:56.284Z,13.15
2018-11-06T20:34:24.630Z,14.07
2018-11-06T20:36:52.399Z,12.23
2018-11-06T20:39:19.868Z,12.78
2018-11-06T20:41:47.359Z,13.15
2018-11-06T20:44:14.922Z,13.20
2018-11-06T20:46:42.484Z,12.30
2018-11-06T20:49:09.874Z,12.80
2018-11-06T20:51:37.372Z,13.03
2018-11-06T20:54:05.178Z,12.98
2018-11-06T20:56:32.710Z,12.80
2018-11-06T20:59:00.111Z,12.30
2018-11-06T21:01:27.487Z,13.28
2018-11-06T21:03:55.106Z,11.53
2018-11-06T21:06:22.461Z,13.85
2018-11-06T21:08:50.339Z,12.37
2018-11-06T21:11:17.868Z,12.85
2018-11-06T21:13:45.318Z,11.65
2018-11-06T21:16:12.657Z,12.03
2018-11-06T21:18:40.488Z,11.00
2018-11-06T21:21:07.948Z,11.18
2018-11-06T21:23:35.290Z,11.50
2018-11-06T21:26:02.853Z,12.15
2018-11-06T21:28:30.099Z,12.43
2018-11-06T21:30:57.916Z,13.50
2018-11-06T21:33:26.045Z,15.25
2018-11-06T21:35:53.439Z,13.98
2018-11-06T21:38:25.126Z,14.00
2018-11-06T21:40:52.582Z,12.88
2018-11-06T21:43:19.935Z,12.15
2018-11-06T21:45:47.319Z,12.75
2018-11-06T21:48:14.721Z,13.18
2018-11-06T21:50:42.125Z,13.88
2018-11-06T21:53:09.511Z,12.93
2018-11-06T21:55:36.923Z,11.48
2018-11-06T21:58:05.510Z,13.58
2018-11-06T22:00:33.716Z,13.18
2018-11-06T22:03:01.556Z,12.25
2018-11-06T22:05:29.917Z,12.60
2018-11-06T22:07:57.530Z,11.40
2018-11-06T22:10:24.934Z,15.05
2018-11-06T22:12:52.536Z,12.65
2018-11-06T22:15:20.248Z,12.47
2018-11-06T22:17:47.661Z,12.70
2018-11-06T22:20:17.333Z,13.22
2018-11-06T22:22:45.336Z,12.70
2018-11-06T22:25:13.552Z,12.10
2018-11-06T22:27:41.505Z,12.45
2018-11-06T22:30:10.723Z,11.70
2018-11-06T22:32:38.202Z,11.50
2018-11-06T22:35:06.219Z,12.55
2018-11-06T22:37:33.594Z,11.50
2018-11-06T22:40:01.114Z,12.20
2018-11-06T22:42:28.542Z,11.95
2018-11-06T22:44:55.952Z,12.20
2018-11-06T22:47:23.390Z,13.88
2018-11-06T22:49:50.766Z,11.80
2018-11-06T22:52:18.176Z,11.83
2018-11-06T22:54:45.584Z,11.10
2018-11-06T22:57:13.117Z,11.78
2018-11-06T22:59:40.506Z,12.88
2018-11-06T23:02:07.936Z,13.90
2018-11-06T23:04:36.087Z,12.28
2018-11-06T23:07:04.770Z,13.83
2018-11-06T23:09:31.981Z,13.58
2018-11-06T23:11:59.938Z,12.95
2018-11-06T23:14:27.317Z,12.93
2018-11-06T23:16:54.960Z,11.95
2018-11-06T23:19:22.367Z,11.20
2018-11-06T23:21:50.047Z,11.70
2018-11-06T23:24:17.454Z,13.18
2018-11-06T23:26:44.820Z,13.65
2018-11-06T23:29:12.585Z,12.00
2018-11-06T23:31:40.080Z,11.00
2018-11-06T23:34:07.630Z,11.97
2018-11-06T23:36:35.012Z,11.78
2018-11-06T23:39:02.373Z,11.90
2018-11-06T23:41:29.943Z,12.35
2018-11-06T23:43:57.281Z,11.85
2018-11-06T23:46:24.565Z,12.60
2018-11-06T23:48:51.917Z,11.83
2018-11-06T23:51:19.351Z,12.93
2018-11-06T23:53:46.807Z,10.48
